Ann Arbor, MI

4:06 PM EDT on May 27, 2015 (GMT -0400)
Livingston County | | Change Station
CLOSE
Current Station
Airport
Location: Howell,
Elevation: 961 ft
Nearby Weather Stations

Elev 961 ft 42.63 °N, 83.98 °W | Updated 12 minutes ago

Partly Cloudy
Partly Cloudy
71 °F
Feels Like 71 °F
N
13
Wind Variable Wind from SW
Gusts 17 mph

Today
High -- | Low -- °F
--% Chance of Precip.
Yesterday
High -- | Low -- °F
Precip. -- in
6:04 AM 9:00 PM
Waxing Gibbous, 69% visible
Pressure 29.96 in
Visibility 10.0 miles
Clouds Scattered Clouds 9000 ft
Scattered Clouds 11000 ft
Dew Point 64 °F
Humidity 79%
Rainfall 0.00 in
Snow Depth Not available.
UV 7 out of 12
Pollen 5.40 out of 12
Air Quality Not available.
Flu Activity Sporadic
METAR KOZW 271954Z AUTO 22011G15KT 10SM SCT090 SCT110 22/18 A2996 RMK AO2 T02150177

More Conditions Fewer Conditions

Pressure 29.96 in
Visibility 10.0 miles
Clouds Scattered Clouds 9000 ft
Scattered Clouds 11000 ft
Dew Point 64 °F
Humidity 79%
Rainfall 0.00 in
Snow Depth Not available.
UV 7 out of 12
Pollen 5.40 out of 12
Air Quality Not available.
Flu Activity Sporadic
METAR KOZW 271954Z AUTO 22011G15KT 10SM SCT090 SCT110 22/18 A2996 RMK AO2 T02150177

More Conditions Fewer Conditions

10-Day Weather Forecast

Almanac

Astronomy

May. 27, 2015 Rise Set
Actual Time
Civil Twilight
Nautical Twilight
Astronomical Twilight
Moon
Length of Visible Light
Length of Day
Tomorrow will be .
, % of the Moon is Illuminated

Today's Extremes

State Highs State Lows

Community

WunderPhotos

Upload Photos

1,824,777 photos uploaded!

WunderBlogs® & News

Nearby

Air Quality

  Air Quality AQ Index Pollutant
Not available.

Snow Depth

Station Depth Elevation

Earthquake Activity

City Distance Mag. Time & Date
Minimum magnitude displayed is 2.5.

Coastal Water Temperatures

Place Temperature

Stations

Nearby Weather Stations

Station Location Temp. Windchill Dew Point Humidity Wind Precip. Elev Updated Type
                   
Severe Thunderstorm Watch
Statement as of 2:43 PM EDT on May 27, 2015

Severe Thunderstorm Watch 228 remains in effect until 700 PM EDT

Mi
. Michigan counties included are

Hillsdale Lenawee Livingston
Macomb Monroe Oakland
St. Clair Washtenaw Wayne